sensor_id;sensor_type;location;lat;lon;timestamp;temperature;humidity
30037;DHT22;36325;51.512;-0.382;2024-02-26T00:02:01;7.00;99.90
30037;DHT22;36325;51.512;-0.382;2024-02-26T00:04:29;7.00;99.90
30037;DHT22;36325;51.512;-0.382;2024-02-26T00:06:56;7.00;99.90
30037;DHT22;36325;51.512;-0.382;2024-02-26T00:09:25;7.00;99.90
30037;DHT22;36325;51.512;-0.382;2024-02-26T00:11:52;7.00;99.90
30037;DHT22;36325;51.512;-0.382;2024-02-26T00:14:21;7.00;99.90
30037;DHT22;36325;51.512;-0.382;2024-02-26T00:16:49;7.00;99.90
30037;DHT22;36325;51.512;-0.382;2024-02-26T00:19:16;7.00;99.90
30037;DHT22;36325;51.512;-0.382;2024-02-26T00:21:44;7.00;99.90
30037;DHT22;36325;51.512;-0.382;2024-02-26T00:24:12;7.00;99.90
30037;DHT22;36325;51.512;-0.382;2024-02-26T00:26:40;7.00;99.90
30037;DHT22;36325;51.512;-0.382;2024-02-26T00:29:07;7.00;99.90
30037;DHT22;36325;51.512;-0.382;2024-02-26T00:31:38;7.00;99.90
30037;DHT22;36325;51.512;-0.382;2024-02-26T00:34:05;7.00;99.90
30037;DHT22;36325;51.512;-0.382;2024-02-26T00:36:32;7.00;99.90
30037;DHT22;36325;51.512;-0.382;2024-02-26T00:39:01;7.00;99.90
30037;DHT22;36325;51.512;-0.382;2024-02-26T00:41:28;7.00;99.90
30037;DHT22;36325;51.512;-0.382;2024-02-26T00:43:55;7.00;99.90
30037;DHT22;36325;51.512;-0.382;2024-02-26T00:46:23;7.00;99.90
30037;DHT22;36325;51.512;-0.382;2024-02-26T00:48:50;7.00;99.90
30037;DHT22;36325;51.512;-0.382;2024-02-26T00:51:17;7.00;99.90
30037;DHT22;36325;51.512;-0.382;2024-02-26T00:53:46;7.00;99.90
30037;DHT22;36325;51.512;-0.382;2024-02-26T00:56:13;7.00;99.90
30037;DHT22;36325;51.512;-0.382;2024-02-26T00:58:40;7.00;99.90
30037;DHT22;36325;51.512;-0.382;2024-02-26T01:01:07;7.00;99.90
30037;DHT22;36325;51.512;-0.382;2024-02-26T01:03:34;7.00;99.90
30037;DHT22;36325;51.512;-0.382;2024-02-26T01:06:02;7.00;99.90
30037;DHT22;36325;51.512;-0.382;2024-02-26T01:08:29;7.00;99.90
30037;DHT22;36325;51.512;-0.382;2024-02-26T01:10:56;7.00;99.90
30037;DHT22;36325;51.512;-0.382;2024-02-26T01:13:23;7.00;99.90
30037;DHT22;36325;51.512;-0.382;2024-02-26T01:15:50;7.00;99.90
30037;DHT22;36325;51.512;-0.382;2024-02-26T01:18:17;7.00;99.90
30037;DHT22;36325;51.512;-0.382;2024-02-26T01:20:45;6.90;99.90
30037;DHT22;36325;51.512;-0.382;2024-02-26T01:23:12;7.10;99.90
30037;DHT22;36325;51.512;-0.382;2024-02-26T01:25:39;7.00;99.90
30037;DHT22;36325;51.512;-0.382;2024-02-26T01:28:08;7.00;99.90
30037;DHT22;36325;51.512;-0.382;2024-02-26T01:30:35;7.10;99.90
30037;DHT22;36325;51.512;-0.382;2024-02-26T01:33:02;7.10;99.90
30037;DHT22;36325;51.512;-0.382;2024-02-26T01:35:30;7.10;99.90
30037;DHT22;36325;51.512;-0.382;2024-02-26T01:37:57;7.10;99.90
30037;DHT22;36325;51.512;-0.382;2024-02-26T01:40:26;7.10;99.90
30037;DHT22;36325;51.512;-0.382;2024-02-26T01:42:53;7.10;99.90
30037;DHT22;36325;51.512;-0.382;2024-02-26T01:45:21;7.10;99.90
30037;DHT22;36325;51.512;-0.382;2024-02-26T01:47:51;7.10;99.90
30037;DHT22;36325;51.512;-0.382;2024-02-26T01:50:20;7.10;99.90
30037;DHT22;36325;51.512;-0.382;2024-02-26T01:52:49;7.10;99.90
30037;DHT22;36325;51.512;-0.382;2024-02-26T01:55:20;7.10;99.90
30037;DHT22;36325;51.512;-0.382;2024-02-26T01:57:49;7.20;99.90
30037;DHT22;36325;51.512;-0.382;2024-02-26T02:00:18;7.10;99.90
30037;DHT22;36325;51.512;-0.382;2024-02-26T02:02:46;7.10;99.90
30037;DHT22;36325;51.512;-0.382;2024-02-26T02:05:15;7.20;99.90
30037;DHT22;36325;51.512;-0.382;2024-02-26T02:07:44;7.00;99.90
30037;DHT22;36325;51.512;-0.382;2024-02-26T02:10:12;7.20;99.90
30037;DHT22;36325;51.512;-0.382;2024-02-26T02:12:40;7.20;99.90
30037;DHT22;36325;51.512;-0.382;2024-02-26T02:15:07;7.20;99.90
30037;DHT22;36325;51.512;-0.382;2024-02-26T02:17:35;7.20;99.90
30037;DHT22;36325;51.512;-0.382;2024-02-26T02:20:02;8.70;99.90
30037;DHT22;36325;51.512;-0.382;2024-02-26T02:22:31;7.20;99.90
30037;DHT22;36325;51.512;-0.382;2024-02-26T02:24:59;7.20;99.90
30037;DHT22;36325;51.512;-0.382;2024-02-26T02:27:27;7.20;99.90
30037;DHT22;36325;51.512;-0.382;2024-02-26T02:29:55;7.20;99.90
30037;DHT22;36325;51.512;-0.382;2024-02-26T02:32:23;7.20;99.90
30037;DHT22;36325;51.512;-0.382;2024-02-26T02:34:51;7.20;99.90
30037;DHT22;36325;51.512;-0.382;2024-02-26T02:37:19;7.20;99.90
30037;DHT22;36325;51.512;-0.382;2024-02-26T02:39:46;7.20;99.90
30037;DHT22;36325;51.512;-0.382;2024-02-26T02:42:14;7.20;99.90
30037;DHT22;36325;51.512;-0.382;2024-02-26T02:44:41;7.20;99.90
30037;DHT22;36325;51.512;-0.382;2024-02-26T02:47:11;7.20;99.90
30037;DHT22;36325;51.512;-0.382;2024-02-26T02:49:38;7.20;99.90
30037;DHT22;36325;51.512;-0.382;2024-02-26T02:52:06;7.80;99.90
30037;DHT22;36325;51.512;-0.382;2024-02-26T02:54:33;7.10;99.90
30037;DHT22;36325;51.512;-0.382;2024-02-26T02:57:01;7.20;99.90
30037;DHT22;36325;51.512;-0.382;2024-02-26T02:59:28;7.10;99.90
30037;DHT22;36325;51.512;-0.382;2024-02-26T03:01:56;7.10;99.90
30037;DHT22;36325;51.512;-0.382;2024-02-26T03:04:23;7.10;99.90
30037;DHT22;36325;51.512;-0.382;2024-02-26T03:06:52;7.00;99.90
30037;DHT22;36325;51.512;-0.382;2024-02-26T03:09:19;7.00;99.90
30037;DHT22;36325;51.512;-0.382;2024-02-26T03:11:47;7.00;99.90
30037;DHT22;36325;51.512;-0.382;2024-02-26T03:14:15;7.10;99.90
30037;DHT22;36325;51.512;-0.382;2024-02-26T03:16:43;7.00;99.90
30037;DHT22;36325;51.512;-0.382;2024-02-26T03:19:10;7.00;99.90
30037;DHT22;36325;51.512;-0.382;2024-02-26T03:21:37;7.00;99.90
30037;DHT22;36325;51.512;-0.382;2024-02-26T03:24:05;7.00;99.90
30037;DHT22;36325;51.512;-0.382;2024-02-26T03:26:33;6.90;99.90
30037;DHT22;36325;51.512;-0.382;2024-02-26T03:29:00;6.90;99.90
30037;DHT22;36325;51.512;-0.382;2024-02-26T03:31:29;6.90;99.90
30037;DHT22;36325;51.512;-0.382;2024-02-26T03:33:57;6.90;99.90
30037;DHT22;36325;51.512;-0.382;2024-02-26T03:36:24;6.90;99.90
30037;DHT22;36325;51.512;-0.382;2024-02-26T03:38:51;6.90;99.90
30037;DHT22;36325;51.512;-0.382;2024-02-26T03:41:20;6.90;99.90
30037;DHT22;36325;51.512;-0.382;2024-02-26T03:43:47;6.90;99.90
30037;DHT22;36325;51.512;-0.382;2024-02-26T03:46:15;6.80;99.90
30037;DHT22;36325;51.512;-0.382;2024-02-26T03:48:43;6.80;99.90
30037;DHT22;36325;51.512;-0.382;2024-02-26T03:51:12;6.80;99.90
30037;DHT22;36325;51.512;-0.382;2024-02-26T03:53:40;6.80;99.90
30037;DHT22;36325;51.512;-0.382;2024-02-26T03:56:09;6.80;99.90
30037;DHT22;36325;51.512;-0.382;2024-02-26T03:58:38;6.80;99.90
30037;DHT22;36325;51.512;-0.382;2024-02-26T04:01:09;6.70;99.90
30037;DHT22;36325;51.512;-0.382;2024-02-26T04:03:36;6.80;99.90
30037;DHT22;36325;51.512;-0.382;2024-02-26T04:06:03;6.80;99.90
30037;DHT22;36325;51.512;-0.382;2024-02-26T04:08:31;6.70;99.90
30037;DHT22;36325;51.512;-0.382;2024-02-26T04:10:59;6.70;99.90
30037;DHT22;36325;51.512;-0.382;2024-02-26T04:13:26;6.70;99.90
30037;DHT22;36325;51.512;-0.382;2024-02-26T04:15:53;6.70;99.90
30037;DHT22;36325;51.512;-0.382;2024-02-26T04:18:20;6.70;99.90
30037;DHT22;36325;51.512;-0.382;2024-02-26T04:20:48;6.70;99.90
30037;DHT22;36325;51.512;-0.382;2024-02-26T04:23:15;6.70;99.90
30037;DHT22;36325;51.512;-0.382;2024-02-26T04:25:43;6.60;99.90
30037;DHT22;36325;51.512;-0.382;2024-02-26T04:28:10;6.70;99.90
30037;DHT22;36325;51.512;-0.382;2024-02-26T04:30:40;6.60;99.90
30037;DHT22;36325;51.512;-0.382;2024-02-26T04:33:08;7.80;99.90
30037;DHT22;36325;51.512;-0.382;2024-02-26T04:35:35;6.60;99.90
30037;DHT22;36325;51.512;-0.382;2024-02-26T04:38:02;6.60;99.90
30037;DHT22;36325;51.512;-0.382;2024-02-26T04:43:22;6.60;99.90
30037;DHT22;36325;51.512;-0.382;2024-02-26T04:45:50;6.90;99.90
30037;DHT22;36325;51.512;-0.382;2024-02-26T04:48:17;6.60;99.90
30037;DHT22;36325;51.512;-0.382;2024-02-26T04:50:44;6.60;99.90
30037;DHT22;36325;51.512;-0.382;2024-02-26T04:53:12;6.60;99.90
30037;DHT22;36325;51.512;-0.382;2024-02-26T04:55:39;6.60;99.90
30037;DHT22;36325;51.512;-0.382;2024-02-26T04:58:06;6.60;99.90
30037;DHT22;36325;51.512;-0.382;2024-02-26T05:00:33;6.60;99.90
30037;DHT22;36325;51.512;-0.382;2024-02-26T05:03:02;6.60;99.90
30037;DHT22;36325;51.512;-0.382;2024-02-26T05:05:29;6.60;99.90
30037;DHT22;36325;51.512;-0.382;2024-02-26T05:07:56;6.60;99.90
30037;DHT22;36325;51.512;-0.382;2024-02-26T05:10:25;6.60;99.90
30037;DHT22;36325;51.512;-0.382;2024-02-26T05:12:53;6.60;99.90
30037;DHT22;36325;51.512;-0.382;2024-02-26T05:15:20;6.50;99.90
30037;DHT22;36325;51.512;-0.382;2024-02-26T05:17:47;6.50;99.90
30037;DHT22;36325;51.512;-0.382;2024-02-26T05:20:14;6.50;99.90
30037;DHT22;36325;51.512;-0.382;2024-02-26T05:22:42;6.50;99.90
30037;DHT22;36325;51.512;-0.382;2024-02-26T05:25:09;6.50;99.90
30037;DHT22;36325;51.512;-0.382;2024-02-26T05:27:37;6.50;99.90
30037;DHT22;36325;51.512;-0.382;2024-02-26T05:30:04;6.50;99.90
30037;DHT22;36325;51.512;-0.382;2024-02-26T05:32:32;6.50;99.90
30037;DHT22;36325;51.512;-0.382;2024-02-26T05:34:59;6.50;99.90
30037;DHT22;36325;51.512;-0.382;2024-02-26T05:37:26;6.50;99.90
30037;DHT22;36325;51.512;-0.382;2024-02-26T05:39:53;6.50;99.90
30037;DHT22;36325;51.512;-0.382;2024-02-26T05:42:22;6.60;99.90
30037;DHT22;36325;51.512;-0.382;2024-02-26T05:44:49;6.60;99.90
30037;DHT22;36325;51.512;-0.382;2024-02-26T05:47:17;6.50;99.90
30037;DHT22;36325;51.512;-0.382;2024-02-26T05:49:44;6.60;99.90
30037;DHT22;36325;51.512;-0.382;2024-02-26T05:52:12;6.50;99.90
30037;DHT22;36325;51.512;-0.382;2024-02-26T05:54:39;6.50;99.90
30037;DHT22;36325;51.512;-0.382;2024-02-26T05:57:07;6.50;99.90
30037;DHT22;36325;51.512;-0.382;2024-02-26T05:59:37;6.60;99.90
30037;DHT22;36325;51.512;-0.382;2024-02-26T06:02:05;6.60;99.90
30037;DHT22;36325;51.512;-0.382;2024-02-26T06:04:32;6.60;99.90
30037;DHT22;36325;51.512;-0.382;2024-02-26T06:07:01;6.50;99.90
30037;DHT22;36325;51.512;-0.382;2024-02-26T06:09:28;6.60;99.90
30037;DHT22;36325;51.512;-0.382;2024-02-26T06:11:55;6.60;99.90
30037;DHT22;36325;51.512;-0.382;2024-02-26T06:14:22;6.50;99.90
30037;DHT22;36325;51.512;-0.382;2024-02-26T06:16:51;6.60;99.90
30037;DHT22;36325;51.512;-0.382;2024-02-26T06:19:18;6.60;99.90
30037;DHT22;36325;51.512;-0.382;2024-02-26T06:21:45;6.60;99.90
30037;DHT22;36325;51.512;-0.382;2024-02-26T06:24:12;6.50;99.90
30037;DHT22;36325;51.512;-0.382;2024-02-26T06:26:40;6.60;99.90
30037;DHT22;36325;51.512;-0.382;2024-02-26T06:29:07;6.60;99.90
30037;DHT22;36325;51.512;-0.382;2024-02-26T06:31:34;6.60;99.90
30037;DHT22;36325;51.512;-0.382;2024-02-26T06:34:01;6.50;99.90
30037;DHT22;36325;51.512;-0.382;2024-02-26T06:36:28;6.50;99.90
30037;DHT22;36325;51.512;-0.382;2024-02-26T06:38:56;6.50;99.90
30037;DHT22;36325;51.512;-0.382;2024-02-26T06:41:23;6.50;99.90
30037;DHT22;36325;51.512;-0.382;2024-02-26T06:43:54;6.50;99.90
30037;DHT22;36325;51.512;-0.382;2024-02-26T06:46:22;6.50;99.90
30037;DHT22;36325;51.512;-0.382;2024-02-26T06:48:49;6.50;99.90
30037;DHT22;36325;51.512;-0.382;2024-02-26T06:51:19;6.50;99.90
30037;DHT22;36325;51.512;-0.382;2024-02-26T06:53:47;6.40;99.90
30037;DHT22;36325;51.512;-0.382;2024-02-26T06:56:14;6.40;99.90
30037;DHT22;36325;51.512;-0.382;2024-02-26T06:58:42;6.30;99.90
30037;DHT22;36325;51.512;-0.382;2024-02-26T07:01:10;6.40;99.90
30037;DHT22;36325;51.512;-0.382;2024-02-26T07:03:37;6.40;99.90
30037;DHT22;36325;51.512;-0.382;2024-02-26T07:06:05;6.40;99.90
30037;DHT22;36325;51.512;-0.382;2024-02-26T07:08:32;6.40;99.90
30037;DHT22;36325;51.512;-0.382;2024-02-26T07:11:00;6.40;99.90
30037;DHT22;36325;51.512;-0.382;2024-02-26T07:13:27;6.40;99.90
30037;DHT22;36325;51.512;-0.382;2024-02-26T07:15:55;6.40;99.90
30037;DHT22;36325;51.512;-0.382;2024-02-26T07:18:22;6.40;99.90
30037;DHT22;36325;51.512;-0.382;2024-02-26T07:20:50;6.40;99.90
30037;DHT22;36325;51.512;-0.382;2024-02-26T07:23:17;6.40;99.90
30037;DHT22;36325;51.512;-0.382;2024-02-26T07:25:44;6.40;99.90
30037;DHT22;36325;51.512;-0.382;2024-02-26T07:28:14;6.40;99.90
30037;DHT22;36325;51.512;-0.382;2024-02-26T07:30:42;6.70;99.90
30037;DHT22;36325;51.512;-0.382;2024-02-26T07:33:09;6.50;99.90
30037;DHT22;36325;51.512;-0.382;2024-02-26T07:35:37;6.50;99.90
30037;DHT22;36325;51.512;-0.382;2024-02-26T07:38:05;6.50;99.90
30037;DHT22;36325;51.512;-0.382;2024-02-26T07:40:35;6.50;99.90
30037;DHT22;36325;51.512;-0.382;2024-02-26T07:43:08;6.50;99.90
30037;DHT22;36325;51.512;-0.382;2024-02-26T07:45:35;4.20;99.90
30037;DHT22;36325;51.512;-0.382;2024-02-26T07:48:03;6.60;99.90
30037;DHT22;36325;51.512;-0.382;2024-02-26T07:50:31;6.60;99.90
30037;DHT22;36325;51.512;-0.382;2024-02-26T07:52:58;6.60;99.90
30037;DHT22;36325;51.512;-0.382;2024-02-26T07:55:25;6.60;99.90
30037;DHT22;36325;51.512;-0.382;2024-02-26T07:57:53;6.70;99.90
30037;DHT22;36325;51.512;-0.382;2024-02-26T08:00:20;6.60;99.90
30037;DHT22;36325;51.512;-0.382;2024-02-26T08:02:48;6.70;99.90
30037;DHT22;36325;51.512;-0.382;2024-02-26T08:05:15;6.70;99.90
30037;DHT22;36325;51.512;-0.382;2024-02-26T08:07:42;6.70;99.90
30037;DHT22;36325;51.512;-0.382;2024-02-26T08:10:10;6.70;99.90
30037;DHT22;36325;51.512;-0.382;2024-02-26T08:12:38;6.70;99.90
30037;DHT22;36325;51.512;-0.382;2024-02-26T08:15:05;6.80;99.90
30037;DHT22;36325;51.512;-0.382;2024-02-26T08:17:33;6.80;99.90
30037;DHT22;36325;51.512;-0.382;2024-02-26T08:20:00;6.80;99.90
30037;DHT22;36325;51.512;-0.382;2024-02-26T08:22:29;6.80;99.90
30037;DHT22;36325;51.512;-0.382;2024-02-26T08:24:56;6.90;99.90
30037;DHT22;36325;51.512;-0.382;2024-02-26T08:27:23;6.90;99.90
30037;DHT22;36325;51.512;-0.382;2024-02-26T08:29:51;6.90;99.90
30037;DHT22;36325;51.512;-0.382;2024-02-26T08:32:19;7.00;99.90
30037;DHT22;36325;51.512;-0.382;2024-02-26T08:34:46;7.00;99.90
30037;DHT22;36325;51.512;-0.382;2024-02-26T08:37:16;7.00;99.90
30037;DHT22;36325;51.512;-0.382;2024-02-26T08:39:43;7.00;99.90
30037;DHT22;36325;51.512;-0.382;2024-02-26T08:42:12;5.80;99.90
30037;DHT22;36325;51.512;-0.382;2024-02-26T08:44:40;7.00;99.90
30037;DHT22;36325;51.512;-0.382;2024-02-26T08:47:07;7.00;99.90
30037;DHT22;36325;51.512;-0.382;2024-02-26T08:49:35;7.00;99.90
30037;DHT22;36325;51.512;-0.382;2024-02-26T08:52:03;7.10;99.90
30037;DHT22;36325;51.512;-0.382;2024-02-26T08:54:31;7.10;99.90
30037;DHT22;36325;51.512;-0.382;2024-02-26T08:56:59;7.10;99.90
30037;DHT22;36325;51.512;-0.382;2024-02-26T08:59:27;7.10;99.90
30037;DHT22;36325;51.512;-0.382;2024-02-26T09:01:55;7.20;99.90
30037;DHT22;36325;51.512;-0.382;2024-02-26T09:04:23;7.20;99.90
30037;DHT22;36325;51.512;-0.382;2024-02-26T09:06:50;7.30;99.90
30037;DHT22;36325;51.512;-0.382;2024-02-26T09:09:18;7.30;99.90
30037;DHT22;36325;51.512;-0.382;2024-02-26T09:11:45;7.30;99.90
30037;DHT22;36325;51.512;-0.382;2024-02-26T09:14:13;7.30;99.90
30037;DHT22;36325;51.512;-0.382;2024-02-26T09:16:40;7.30;99.90
30037;DHT22;36325;51.512;-0.382;2024-02-26T09:19:07;7.40;99.90
30037;DHT22;36325;51.512;-0.382;2024-02-26T09:21:34;7.40;99.90
30037;DHT22;36325;51.512;-0.382;2024-02-26T09:24:02;7.40;99.90
30037;DHT22;36325;51.512;-0.382;2024-02-26T09:26:29;7.40;99.90
30037;DHT22;36325;51.512;-0.382;2024-02-26T09:28:57;7.40;99.90
30037;DHT22;36325;51.512;-0.382;2024-02-26T09:31:24;7.40;99.90
30037;DHT22;36325;51.512;-0.382;2024-02-26T09:33:51;7.40;99.90
30037;DHT22;36325;51.512;-0.382;2024-02-26T09:36:19;7.50;99.90
30037;DHT22;36325;51.512;-0.382;2024-02-26T09:38:46;7.50;99.90
30037;DHT22;36325;51.512;-0.382;2024-02-26T09:41:18;7.50;99.90
30037;DHT22;36325;51.512;-0.382;2024-02-26T09:43:46;7.60;99.90
30037;DHT22;36325;51.512;-0.382;2024-02-26T09:46:15;7.60;99.90
30037;DHT22;36325;51.512;-0.382;2024-02-26T09:48:44;7.60;99.90
30037;DHT22;36325;51.512;-0.382;2024-02-26T09:51:12;7.70;99.90
30037;DHT22;36325;51.512;-0.382;2024-02-26T09:53:40;7.70;99.90
30037;DHT22;36325;51.512;-0.382;2024-02-26T09:56:10;7.70;99.90
30037;DHT22;36325;51.512;-0.382;2024-02-26T09:58:38;7.80;99.90
30037;DHT22;36325;51.512;-0.382;2024-02-26T10:01:08;7.80;99.90
30037;DHT22;36325;51.512;-0.382;2024-02-26T10:03:41;7.90;99.90
30037;DHT22;36325;51.512;-0.382;2024-02-26T10:06:17;8.00;99.90
30037;DHT22;36325;51.512;-0.382;2024-02-26T10:08:45;8.10;99.90
30037;DHT22;36325;51.512;-0.382;2024-02-26T10:11:12;8.10;99.90
30037;DHT22;36325;51.512;-0.382;2024-02-26T10:13:40;8.10;99.90
30037;DHT22;36325;51.512;-0.382;2024-02-26T10:16:08;8.00;99.90
30037;DHT22;36325;51.512;-0.382;2024-02-26T10:18:45;8.00;99.90
30037;DHT22;36325;51.512;-0.382;2024-02-26T10:21:22;8.00;99.90
30037;DHT22;36325;51.512;-0.382;2024-02-26T10:23:50;8.10;99.90
30037;DHT22;36325;51.512;-0.382;2024-02-26T10:26:18;8.10;99.90
30037;DHT22;36325;51.512;-0.382;2024-02-26T10:28:46;8.10;99.90
30037;DHT22;36325;51.512;-0.382;2024-02-26T10:31:16;8.00;99.90
30037;DHT22;36325;51.512;-0.382;2024-02-26T10:33:43;8.10;99.90
30037;DHT22;36325;51.512;-0.382;2024-02-26T10:36:11;8.20;99.90
30037;DHT22;36325;51.512;-0.382;2024-02-26T10:38:39;8.30;99.90
30037;DHT22;36325;51.512;-0.382;2024-02-26T10:41:06;8.50;99.90
30037;DHT22;36325;51.512;-0.382;2024-02-26T10:43:34;8.70;99.90
30037;DHT22;36325;51.512;-0.382;2024-02-26T10:46:01;8.80;99.90
30037;DHT22;36325;51.512;-0.382;2024-02-26T10:48:28;8.80;99.90
30037;DHT22;36325;51.512;-0.382;2024-02-26T10:50:55;8.70;99.90
30037;DHT22;36325;51.512;-0.382;2024-02-26T10:53:25;8.90;99.90
30037;DHT22;36325;51.512;-0.382;2024-02-26T10:56:03;9.10;99.90
30037;DHT22;36325;51.512;-0.382;2024-02-26T10:58:31;9.40;99.90
30037;DHT22;36325;51.512;-0.382;2024-02-26T11:00:58;9.70;99.90
30037;DHT22;36325;51.512;-0.382;2024-02-26T11:03:26;9.80;99.90
30037;DHT22;36325;51.512;-0.382;2024-02-26T11:08:26;9.60;99.90
30037;DHT22;36325;51.512;-0.382;2024-02-26T11:10:53;9.40;99.90
30037;DHT22;36325;51.512;-0.382;2024-02-26T11:13:22;9.30;99.90
30037;DHT22;36325;51.512;-0.382;2024-02-26T11:15:53;9.30;99.90
30037;DHT22;36325;51.512;-0.382;2024-02-26T11:18:22;9.30;99.90
30037;DHT22;36325;51.512;-0.382;2024-02-26T11:20:51;9.10;99.90
30037;DHT22;36325;51.512;-0.382;2024-02-26T11:23:19;9.10;99.90
30037;DHT22;36325;51.512;-0.382;2024-02-26T11:25:46;9.00;99.90
30037;DHT22;36325;51.512;-0.382;2024-02-26T11:28:15;9.00;99.90
30037;DHT22;36325;51.512;-0.382;2024-02-26T11:30:44;9.30;99.90
30037;DHT22;36325;51.512;-0.382;2024-02-26T11:33:12;9.90;99.90
30037;DHT22;36325;51.512;-0.382;2024-02-26T11:35:42;10.60;99.90
30037;DHT22;36325;51.512;-0.382;2024-02-26T11:38:16;11.00;99.90
30037;DHT22;36325;51.512;-0.382;2024-02-26T11:40:45;11.10;99.90
30037;DHT22;36325;51.512;-0.382;2024-02-26T11:43:12;10.90;99.90
30037;DHT22;36325;51.512;-0.382;2024-02-26T11:48:13;10.30;99.90
30037;DHT22;36325;51.512;-0.382;2024-02-26T11:50:42;10.00;99.90
30037;DHT22;36325;51.512;-0.382;2024-02-26T11:53:25;10.00;99.90
30037;DHT22;36325;51.512;-0.382;2024-02-26T11:58:39;10.10;99.90
30037;DHT22;36325;51.512;-0.382;2024-02-26T12:03:54;10.60;99.90
30037;DHT22;36325;51.512;-0.382;2024-02-26T12:06:22;11.20;99.90
30037;DHT22;36325;51.512;-0.382;2024-02-26T12:08:50;11.60;99.90
30037;DHT22;36325;51.512;-0.382;2024-02-26T12:11:17;11.50;99.90
30037;DHT22;36325;51.512;-0.382;2024-02-26T12:13:47;11.20;99.90
30037;DHT22;36325;51.512;-0.382;2024-02-26T12:16:59;11.00;99.90
30037;DHT22;36325;51.512;-0.382;2024-02-26T12:19:07;10.90;99.90
30037;DHT22;36325;51.512;-0.382;2024-02-26T12:21:35;10.70;99.90
30037;DHT22;36325;51.512;-0.382;2024-02-26T12:24:10;10.50;99.90
30037;DHT22;36325;51.512;-0.382;2024-02-26T12:26:41;10.30;99.90
30037;DHT22;36325;51.512;-0.382;2024-02-26T12:29:08;10.20;99.90
30037;DHT22;36325;51.512;-0.382;2024-02-26T12:31:37;10.10;99.90
30037;DHT22;36325;51.512;-0.382;2024-02-26T12:34:06;10.10;99.90
30037;DHT22;36325;51.512;-0.382;2024-02-26T12:36:36;10.30;99.90
30037;DHT22;36325;51.512;-0.382;2024-02-26T12:39:04;11.10;99.90
30037;DHT22;36325;51.512;-0.382;2024-02-26T12:41:37;11.80;99.90
30037;DHT22;36325;51.512;-0.382;2024-02-26T12:44:05;11.70;99.90
30037;DHT22;36325;51.512;-0.382;2024-02-26T12:46:34;11.30;99.90
30037;DHT22;36325;51.512;-0.382;2024-02-26T12:49:02;11.30;99.90
30037;DHT22;36325;51.512;-0.382;2024-02-26T12:51:30;10.90;99.90
30037;DHT22;36325;51.512;-0.382;2024-02-26T12:53:57;10.70;99.90
30037;DHT22;36325;51.512;-0.382;2024-02-26T12:56:26;10.70;99.90
30037;DHT22;36325;51.512;-0.382;2024-02-26T12:58:54;10.70;99.90
30037;DHT22;36325;51.512;-0.382;2024-02-26T13:01:23;10.80;99.90
30037;DHT22;36325;51.512;-0.382;2024-02-26T13:03:52;11.10;99.90
30037;DHT22;36325;51.512;-0.382;2024-02-26T13:06:20;11.60;99.90
30037;DHT22;36325;51.512;-0.382;2024-02-26T13:08:49;10.90;99.90
30037;DHT22;36325;51.512;-0.382;2024-02-26T13:11:16;11.50;99.90
30037;DHT22;36325;51.512;-0.382;2024-02-26T13:13:47;11.30;99.90
30037;DHT22;36325;51.512;-0.382;2024-02-26T13:16:15;11.40;99.90
30037;DHT22;36325;51.512;-0.382;2024-02-26T13:18:43;11.60;99.90
30037;DHT22;36325;51.512;-0.382;2024-02-26T13:21:15;11.30;99.90
30037;DHT22;36325;51.512;-0.382;2024-02-26T13:23:43;11.20;99.90
30037;DHT22;36325;51.512;-0.382;2024-02-26T13:26:15;11.10;99.90
30037;DHT22;36325;51.512;-0.382;2024-02-26T13:28:42;11.00;99.90
30037;DHT22;36325;51.512;-0.382;2024-02-26T13:31:10;10.80;99.90
30037;DHT22;36325;51.512;-0.382;2024-02-26T13:33:38;10.70;99.90
30037;DHT22;36325;51.512;-0.382;2024-02-26T13:36:05;10.90;99.90
30037;DHT22;36325;51.512;-0.382;2024-02-26T13:38:34;11.20;99.90
30037;DHT22;36325;51.512;-0.382;2024-02-26T13:41:02;11.40;99.90
30037;DHT22;36325;51.512;-0.382;2024-02-26T13:43:30;11.50;99.90
30037;DHT22;36325;51.512;-0.382;2024-02-26T13:45:57;11.70;99.90
30037;DHT22;36325;51.512;-0.382;2024-02-26T13:48:24;12.40;99.90
30037;DHT22;36325;51.512;-0.382;2024-02-26T13:50:53;12.90;99.90
30037;DHT22;36325;51.512;-0.382;2024-02-26T13:53:21;13.10;99.90
30037;DHT22;36325;51.512;-0.382;2024-02-26T13:55:50;13.30;99.90
30037;DHT22;36325;51.512;-0.382;2024-02-26T13:58:18;13.50;99.90
30037;DHT22;36325;51.512;-0.382;2024-02-26T14:00:50;13.00;99.90
30037;DHT22;36325;51.512;-0.382;2024-02-26T14:03:18;12.70;99.90
30037;DHT22;36325;51.512;-0.382;2024-02-26T14:05:46;12.60;99.90
30037;DHT22;36325;51.512;-0.382;2024-02-26T14:08:14;12.50;99.90
30037;DHT22;36325;51.512;-0.382;2024-02-26T14:10:42;12.30;99.90
30037;DHT22;36325;51.512;-0.382;2024-02-26T14:13:09;12.00;99.90
30037;DHT22;36325;51.512;-0.382;2024-02-26T14:15:37;11.80;99.90
30037;DHT22;36325;51.512;-0.382;2024-02-26T14:18:06;11.60;99.90
30037;DHT22;36325;51.512;-0.382;2024-02-26T14:20:35;11.70;99.90
30037;DHT22;36325;51.512;-0.382;2024-02-26T14:23:03;11.80;99.90
30037;DHT22;36325;51.512;-0.382;2024-02-26T14:25:30;11.80;99.90
30037;DHT22;36325;51.512;-0.382;2024-02-26T14:27:58;11.90;99.90
30037;DHT22;36325;51.512;-0.382;2024-02-26T14:30:26;12.00;99.90
30037;DHT22;36325;51.512;-0.382;2024-02-26T14:32:53;11.90;99.90
30037;DHT22;36325;51.512;-0.382;2024-02-26T14:35:21;11.90;99.90
30037;DHT22;36325;51.512;-0.382;2024-02-26T14:37:49;12.30;99.90
30037;DHT22;36325;51.512;-0.382;2024-02-26T14:40:17;12.20;99.90
30037;DHT22;36325;51.512;-0.382;2024-02-26T14:42:45;12.30;99.90
30037;DHT22;36325;51.512;-0.382;2024-02-26T14:45:13;12.60;99.90
30037;DHT22;36325;51.512;-0.382;2024-02-26T14:47:41;12.70;99.90
30037;DHT22;36325;51.512;-0.382;2024-02-26T14:50:08;13.30;99.90
30037;DHT22;36325;51.512;-0.382;2024-02-26T14:52:36;13.60;99.90
30037;DHT22;36325;51.512;-0.382;2024-02-26T14:55:04;13.70;99.90
30037;DHT22;36325;51.512;-0.382;2024-02-26T14:57:32;13.30;99.90
30037;DHT22;36325;51.512;-0.382;2024-02-26T15:00:01;12.50;99.90
30037;DHT22;36325;51.512;-0.382;2024-02-26T15:02:32;12.40;99.90
30037;DHT22;36325;51.512;-0.382;2024-02-26T15:05:00;13.40;99.90
30037;DHT22;36325;51.512;-0.382;2024-02-26T15:07:27;13.80;99.90
30037;DHT22;36325;51.512;-0.382;2024-02-26T15:09:56;13.80;99.90
30037;DHT22;36325;51.512;-0.382;2024-02-26T15:12:27;13.70;99.90
30037;DHT22;36325;51.512;-0.382;2024-02-26T15:14:58;12.70;99.90
30037;DHT22;36325;51.512;-0.382;2024-02-26T15:17:28;13.10;99.90
30037;DHT22;36325;51.512;-0.382;2024-02-26T15:19:59;14.30;99.90
30037;DHT22;36325;51.512;-0.382;2024-02-26T15:22:28;13.70;99.90
30037;DHT22;36325;51.512;-0.382;2024-02-26T15:24:55;14.00;99.90
30037;DHT22;36325;51.512;-0.382;2024-02-26T15:27:24;13.40;99.90
30037;DHT22;36325;51.512;-0.382;2024-02-26T15:29:51;13.10;99.90
30037;DHT22;36325;51.512;-0.382;2024-02-26T15:32:25;13.00;99.90
30037;DHT22;36325;51.512;-0.382;2024-02-26T15:34:54;13.30;99.90
30037;DHT22;36325;51.512;-0.382;2024-02-26T15:37:22;13.00;99.90
30037;DHT22;36325;51.512;-0.382;2024-02-26T15:39:49;12.40;99.90
30037;DHT22;36325;51.512;-0.382;2024-02-26T15:42:16;12.30;99.90
30037;DHT22;36325;51.512;-0.382;2024-02-26T15:44:44;12.00;99.90
30037;DHT22;36325;51.512;-0.382;2024-02-26T15:47:13;11.90;99.90